Time;durP1;ratioP1;P1;durP2;ratioP2;P2;SDS_P1;SDS_P2;PMS_P1;PMS_P2;Temp;Humidity;BMP_temperature;BMP_pressure;BME280_temperature;BME280_humidity;BME280_pressure;Samples;Min_cycle;Max_cycle;Signal;HPM_P1;HPM_P2
2023/12/07 00:02:15;;;;;;;3.80;2.15;;;6.90;99.90;;;;;;5029596;28;20385;-49
2023/12/07 00:04:40;;;;;;;4.03;2.08;;;6.90;99.90;;;;;;5029670;28;20092;-51
2023/12/07 00:07:06;;;;;;;6.65;2.70;;;7.00;99.90;;;;;;5029533;28;20036;-52
2023/12/07 00:09:31;;;;;;;4.13;2.00;;;7.00;99.90;;;;;;5029713;28;20022;-50
2023/12/07 00:11:57;;;;;;;13.63;2.72;;;7.00;99.90;;;;;;5029606;28;20025;-48
2023/12/07 00:14:23;;;;;;;6.40;2.00;;;7.00;99.90;;;;;;5030369;28;20099;-54
2023/12/07 00:16:49;;;;;;;6.25;1.90;;;7.00;99.90;;;;;;5033025;28;20056;-55
2023/12/07 00:19:14;;;;;;;5.18;2.20;;;7.00;99.90;;;;;;5033259;28;20067;-48
2023/12/07 00:21:40;;;;;;;9.20;1.67;;;7.00;99.90;;;;;;5032918;28;20029;-47
2023/12/07 00:24:06;;;;;;;3.22;1.80;;;7.00;99.90;;;;;;5033071;28;20482;-52
2023/12/07 00:26:31;;;;;;;6.25;2.00;;;7.00;99.90;;;;;;5032936;28;20026;-48
2023/12/07 00:28:57;;;;;;;8.65;2.55;;;7.00;99.90;;;;;;5033026;28;20022;-47
2023/12/07 00:31:22;;;;;;;7.28;2.60;;;7.00;99.90;;;;;;5033091;28;20030;-55
2023/12/07 00:33:48;;;;;;;5.35;2.20;;;7.00;99.90;;;;;;5031577;28;20071;-49
2023/12/07 00:36:14;;;;;;;7.55;1.80;;;7.00;99.90;;;;;;5032906;28;20030;-54
2023/12/07 00:38:39;;;;;;;6.68;2.20;;;7.00;99.90;;;;;;5032745;28;20057;-46
2023/12/07 00:41:05;;;;;;;7.80;2.22;;;7.00;99.90;;;;;;5032650;28;20555;-50
2023/12/07 00:43:32;;;;;;;8.00;2.17;;;7.00;99.90;;;;;;5032528;28;20045;-53
2023/12/07 00:45:58;;;;;;;4.95;2.28;;;7.00;99.90;;;;;;5032620;28;20075;-50
2023/12/07 00:48:23;;;;;;;6.05;2.28;;;7.10;99.90;;;;;;5032742;28;20088;-51
2023/12/07 00:50:49;;;;;;;6.00;2.97;;;7.10;99.90;;;;;;5032377;28;20026;-46
2023/12/07 00:53:14;;;;;;;6.88;2.03;;;7.10;99.90;;;;;;5032561;28;20482;-54
2023/12/07 00:55:40;;;;;;;4.55;2.20;;;7.10;99.90;;;;;;5032609;28;20029;-52
2023/12/07 00:58:06;;;;;;;5.05;2.10;;;7.10;99.90;;;;;;5032661;28;20056;-54
2023/12/07 01:00:31;;;;;;;4.38;2.28;;;7.10;99.90;;;;;;5032470;28;20389;-54
2023/12/07 01:02:57;;;;;;;5.05;1.90;;;7.10;99.90;;;;;;5032407;28;20028;-46
2023/12/07 01:05:22;;;;;;;5.28;2.10;;;7.10;99.90;;;;;;5032364;28;20022;-50
2023/12/07 01:07:48;;;;;;;5.07;2.17;;;7.10;99.90;;;;;;5032253;28;20049;-46
2023/12/07 01:10:14;;;;;;;4.28;2.28;;;7.10;99.90;;;;;;5032496;28;20071;-46
2023/12/07 01:12:39;;;;;;;4.75;2.10;;;7.10;99.90;;;;;;5032319;28;20494;-46
2023/12/07 01:15:06;;;;;;;10.30;2.22;;;7.10;99.90;;;;;;5032262;28;20022;-48
2023/12/07 01:17:32;;;;;;;7.13;2.47;;;7.10;99.90;;;;;;5032227;28;20045;-47
2023/12/07 01:19:57;;;;;;;7.18;2.25;;;7.10;99.90;;;;;;5031699;28;20025;-48
2023/12/07 01:22:23;;;;;;;6.55;1.80;;;7.10;99.90;;;;;;5032041;28;20056;-48
2023/12/07 01:24:48;;;;;;;4.82;1.73;;;7.10;99.90;;;;;;5031798;28;20100;-53
2023/12/07 01:27:14;;;;;;;3.83;1.70;;;7.10;99.90;;;;;;5031068;28;20061;-52
2023/12/07 01:29:40;;;;;;;4.57;1.60;;;7.10;99.90;;;;;;5032031;28;20048;-46
2023/12/07 01:32:06;;;;;;;4.40;1.95;;;7.10;99.90;;;;;;5030525;28;20096;-54
2023/12/07 01:34:32;;;;;;;9.32;2.15;;;7.10;99.90;;;;;;5031837;28;20056;-46
2023/12/07 01:36:58;;;;;;;3.70;2.10;;;7.10;99.90;;;;;;5031435;28;20154;-53
2023/12/07 01:39:24;;;;;;;4.57;1.83;;;7.10;99.90;;;;;;5031891;28;20320;-46
2023/12/07 01:41:51;;;;;;;6.45;2.20;;;7.00;99.90;;;;;;5031636;28;20108;-51
2023/12/07 01:44:17;;;;;;;4.85;2.38;;;7.10;99.90;;;;;;5031498;28;20056;-48
2023/12/07 01:46:42;;;;;;;5.60;1.95;;;7.10;99.90;;;;;;5031701;28;20030;-49
2023/12/07 01:49:09;;;;;;;6.50;2.13;;;7.00;99.90;;;;;;5031505;28;20026;-46
2023/12/07 01:51:35;;;;;;;4.57;2.25;;;7.00;99.90;;;;;;5031717;28;20045;-47
2023/12/07 01:54:01;;;;;;;5.22;2.05;;;6.90;99.90;;;;;;5013686;28;20017;-46
2023/12/07 01:56:27;;;;;;;5.53;1.83;;;6.90;99.90;;;;;;5031439;28;20083;-45
2023/12/07 01:58:53;;;;;;;8.85;2.15;;;6.90;99.90;;;;;;5031408;28;20103;-46
2023/12/07 02:01:19;;;;;;;6.45;2.28;;;6.90;99.90;;;;;;5031312;28;20041;-46
2023/12/07 02:03:45;;;;;;;5.88;2.17;;;7.00;99.90;;;;;;5031328;28;20033;-46
2023/12/07 02:06:10;;;;;;;4.85;2.25;;;7.00;99.90;;;;;;5031311;28;20033;-45
2023/12/07 02:08:41;;;;;;;6.57;2.55;;;7.00;99.90;;;;;;5029829;28;20489;-48
2023/12/07 02:11:08;;;;;;;6.35;2.58;;;7.00;99.90;;;;;;5031069;28;20071;-52
2023/12/07 02:13:36;;;;;;;8.85;2.55;;;7.00;99.90;;;;;;5031276;28;20033;-59
2023/12/07 02:16:17;;;;;;;5.95;2.13;;;7.00;99.90;;;;;;5031041;28;20101;-49
2023/12/07 02:19:04;;;;;;;7.30;2.53;;;7.00;99.90;;;;;;5018833;28;20104;-51
2023/12/07 02:21:46;;;;;;;9.13;2.55;;;7.00;99.90;;;;;;5030926;28;20045;-54
2023/12/07 02:24:20;;;;;;;6.43;2.10;;;7.00;99.90;;;;;;5029819;28;20343;-53
2023/12/07 02:26:46;;;;;;;4.47;2.20;;;7.00;99.90;;;;;;5030685;28;20100;-53
2023/12/07 02:29:11;;;;;;;5.93;2.42;;;7.00;99.90;;;;;;5013174;28;20108;-51
2023/12/07 02:31:37;;;;;;;5.57;2.33;;;7.00;99.90;;;;;;5030708;28;20025;-49
2023/12/07 02:34:03;;;;;;;6.60;2.10;;;7.00;99.90;;;;;;5030716;28;20018;-49
2023/12/07 02:36:32;;;;;;;9.63;2.45;;;7.00;99.90;;;;;;5030848;28;20491;-48
2023/12/07 02:39:01;;;;;;;4.45;2.05;;;7.00;99.90;;;;;;5030451;28;20030;-48
2023/12/07 02:41:27;;;;;;;6.82;2.80;;;7.10;99.90;;;;;;5030527;28;20030;-54
2023/12/07 02:43:54;;;;;;;6.00;2.55;;;7.00;99.90;;;;;;5030294;28;20041;-46
2023/12/07 02:46:20;;;;;;;7.78;2.63;;;7.10;99.90;;;;;;5030739;28;20033;-49
2023/12/07 02:48:46;;;;;;;5.60;2.20;;;7.10;99.90;;;;;;5030389;28;20030;-50
2023/12/07 02:51:12;;;;;;;3.95;2.22;;;7.10;99.90;;;;;;5030476;28;20024;-51
2023/12/07 02:53:37;;;;;;;7.13;2.25;;;7.10;99.90;;;;;;5030391;28;20025;-52
2023/12/07 02:56:03;;;;;;;4.43;2.00;;;7.10;99.90;;;;;;5030195;28;20025;-46
2023/12/07 02:58:29;;;;;;;7.90;2.97;;;7.10;99.90;;;;;;5030448;28;20109;-48
2023/12/07 03:00:54;;;;;;;4.03;2.13;;;7.10;99.90;;;;;;5030163;28;20478;-48
2023/12/07 03:03:20;;;;;;;5.20;2.22;;;7.10;99.90;;;;;;5029287;28;20029;-51
2023/12/07 03:05:45;;;;;;;5.22;2.10;;;7.20;99.90;;;;;;5023325;28;20025;-50
2023/12/07 03:08:11;;;;;;;3.42;2.00;;;7.10;99.90;;;;;;5030001;28;20013;-53
2023/12/07 03:10:37;;;;;;;6.95;2.63;;;7.10;99.90;;;;;;5030255;28;20056;-56
2023/12/07 03:13:02;;;;;;;5.20;1.88;;;7.10;99.90;;;;;;5030036;28;20037;-49
2023/12/07 03:15:28;;;;;;;6.03;1.80;;;7.10;99.90;;;;;;5030193;28;20033;-47
2023/12/07 03:17:53;;;;;;;5.70;1.90;;;7.10;99.90;;;;;;5030120;28;20065;-51
2023/12/07 03:20:19;;;;;;;7.28;2.58;;;7.10;99.90;;;;;;5030012;28;20033;-52
2023/12/07 03:22:45;;;;;;;6.57;2.28;;;7.20;99.90;;;;;;5030205;28;20102;-48
2023/12/07 03:25:11;;;;;;;6.22;1.75;;;7.20;99.90;;;;;;5029742;28;20092;-48
2023/12/07 03:27:36;;;;;;;11.95;2.00;;;7.20;99.90;;;;;;5030112;28;20027;-46
2023/12/07 03:30:02;;;;;;;10.65;2.75;;;7.20;99.90;;;;;;5029977;28;20033;-46
2023/12/07 03:32:27;;;;;;;3.72;2.05;;;7.20;99.90;;;;;;5030030;28;20037;-52
2023/12/07 03:34:53;;;;;;;4.00;1.90;;;7.30;99.90;;;;;;5029749;28;20040;-51
2023/12/07 03:37:19;;;;;;;4.18;1.98;;;7.20;99.90;;;;;;5030006;28;21658;-46
2023/12/07 03:39:44;;;;;;;5.45;2.17;;;7.30;99.90;;;;;;5029924;28;20061;-57
2023/12/07 03:42:10;;;;;;;3.67;1.80;;;7.20;99.90;;;;;;5029739;28;20112;-52
2023/12/07 03:44:35;;;;;;;7.30;2.15;;;7.30;99.90;;;;;;5029850;28;20088;-53
2023/12/07 03:47:01;;;;;;;6.47;1.70;;;7.30;99.90;;;;;;5029855;28;20037;-52
2023/12/07 03:49:27;;;;;;;5.57;1.85;;;7.30;99.90;;;;;;5030569;28;20025;-53
2023/12/07 03:51:52;;;;;;;6.35;1.92;;;7.40;99.90;;;;;;5033794;28;20021;-49
2023/12/07 03:54:18;;;;;;;8.25;2.20;;;7.30;99.90;;;;;;5033606;28;20425;-48
2023/12/07 03:56:44;;;;;;;5.93;1.80;;;7.40;99.90;;;;;;5033628;28;20504;-46
2023/12/07 03:59:10;;;;;;;5.70;1.88;;;7.40;99.90;;;;;;5033602;28;20025;-53
2023/12/07 04:01:35;;;;;;;9.23;2.28;;;7.50;99.90;;;;;;5033511;28;20038;-46
2023/12/07 04:04:01;;;;;;;8.07;2.30;;;7.50;99.90;;;;;;5033708;28;20408;-49
2023/12/07 04:06:27;;;;;;;7.20;2.42;;;7.50;99.90;;;;;;5033475;28;20485;-50
2023/12/07 04:08:53;;;;;;;3.45;1.75;;;7.50;99.90;;;;;;5033302;28;20482;-54
2023/12/07 04:11:19;;;;;;;8.52;2.90;;;7.50;99.90;;;;;;5033258;28;20029;-49
2023/12/07 04:13:45;;;;;;;10.82;2.90;;;7.50;99.90;;;;;;5033309;28;20028;-50
2023/12/07 04:16:11;;;;;;;7.45;2.42;;;7.50;99.90;;;;;;5033452;28;20083;-53
2023/12/07 04:18:37;;;;;;;11.95;2.72;;;7.50;99.90;;;;;;5033325;28;20033;-50
2023/12/07 04:21:03;;;;;;;5.78;2.67;;;7.40;99.90;;;;;;5033047;28;20437;-55
2023/12/07 04:23:29;;;;;;;6.80;2.67;;;7.40;99.90;;;;;;5032947;28;20053;-47
2023/12/07 04:25:54;;;;;;;6.10;2.63;;;7.40;99.90;;;;;;5033224;28;20057;-52
2023/12/07 04:28:20;;;;;;;5.70;2.85;;;7.40;99.90;;;;;;5033235;28;20049;-49
2023/12/07 04:30:46;;;;;;;8.95;3.05;;;7.40;99.90;;;;;;5033167;28;20570;-49
2023/12/07 04:33:11;;;;;;;7.97;3.03;;;7.30;99.90;;;;;;5032841;28;20021;-53
2023/12/07 04:35:37;;;;;;;8.40;3.53;;;7.30;99.90;;;;;;5033051;28;20032;-47
2023/12/07 04:38:03;;;;;;;7.85;3.08;;;7.30;99.90;;;;;;5032712;28;20026;-54
2023/12/07 04:40:29;;;;;;;9.77;3.20;;;7.30;99.90;;;;;;5030394;28;20104;-51
2023/12/07 04:42:55;;;;;;;11.93;3.38;;;7.30;99.90;;;;;;5013718;28;20096;-54
2023/12/07 04:45:21;;;;;;;7.32;2.95;;;7.20;99.90;;;;;;5016245;28;20042;-48
2023/12/07 04:47:46;;;;;;;7.47;3.08;;;7.20;99.90;;;;;;5031969;28;20025;-44
2023/12/07 04:50:12;;;;;;;10.23;3.53;;;7.20;99.90;;;;;;5018583;28;20402;-45
2023/12/07 04:52:38;;;;;;;9.95;3.30;;;7.10;99.90;;;;;;5032640;28;20445;-51
2023/12/07 04:55:06;;;;;;;7.20;3.38;;;7.20;99.90;;;;;;5032491;28;20017;-46
2023/12/07 04:57:35;;;;;;;7.25;3.28;;;7.20;99.90;;;;;;5024690;28;20037;-47
2023/12/07 05:00:05;;;;;;;8.75;3.00;;;7.20;99.90;;;;;;5026839;28;20072;-54
2023/12/07 05:02:31;;;;;;;7.47;4.05;;;7.20;99.90;;;;;;5032543;28;20526;-55
2023/12/07 05:04:57;;;;;;;7.60;3.33;;;7.10;99.90;;;;;;5032313;28;20033;-51
2023/12/07 05:07:23;;;;;;;6.47;3.45;;;7.10;99.90;;;;;;5032234;28;20521;-45
2023/12/07 05:09:50;;;;;;;8.60;3.70;;;7.00;99.90;;;;;;5032413;28;20030;-45
2023/12/07 05:12:16;;;;;;;8.55;3.10;;;7.00;99.90;;;;;;5032058;28;20474;-45
2023/12/07 05:14:42;;;;;;;7.55;3.22;;;7.00;99.90;;;;;;5023484;28;20125;-48
2023/12/07 05:17:08;;;;;;;7.68;3.50;;;6.90;99.90;;;;;;5027192;28;20104;-46
2023/12/07 05:19:33;;;;;;;9.05;3.78;;;6.90;99.90;;;;;;5032018;28;20052;-48
2023/12/07 05:21:59;;;;;;;11.32;3.13;;;6.90;99.90;;;;;;5032094;28;20041;-48
2023/12/07 05:24:25;;;;;;;10.23;3.40;;;6.90;99.90;;;;;;5032112;28;20022;-48
2023/12/07 05:26:51;;;;;;;6.75;3.78;;;6.90;99.90;;;;;;5032147;28;20033;-47
2023/12/07 05:29:17;;;;;;;6.90;3.60;;;6.90;99.90;;;;;;5031931;28;20021;-48
2023/12/07 05:31:43;;;;;;;8.75;3.70;;;6.90;99.90;;;;;;5031921;28;20025;-51
2023/12/07 05:34:08;;;;;;;7.18;3.58;;;6.90;99.90;;;;;;5031743;28;20429;-46
2023/12/07 05:36:34;;;;;;;12.32;3.50;;;6.90;99.90;;;;;;5031783;28;20057;-54
2023/12/07 05:39:00;;;;;;;10.02;4.13;;;6.90;99.90;;;;;;5031837;28;20108;-51
2023/12/07 05:41:25;;;;;;;10.57;3.75;;;6.90;99.90;;;;;;5031571;28;20033;-53
2023/12/07 05:43:52;;;;;;;9.27;4.10;;;6.90;99.90;;;;;;5031492;28;20504;-45
2023/12/07 05:46:18;;;;;;;8.07;3.08;;;6.90;99.90;;;;;;5031555;28;20083;-55
2023/12/07 05:48:44;;;;;;;9.90;3.55;;;6.90;99.90;;;;;;5023413;28;20063;-47
2023/12/07 05:51:14;;;;;;;9.75;3.67;;;6.90;99.90;;;;;;5025729;28;20544;-47
2023/12/07 05:53:41;;;;;;;11.05;3.90;;;6.90;99.90;;;;;;5031664;28;20025;-48
2023/12/07 05:56:07;;;;;;;16.02;4.30;;;6.90;99.90;;;;;;5031598;28;20091;-48
2023/12/07 05:58:32;;;;;;;9.77;3.80;;;6.90;99.90;;;;;;5031242;28;20026;-50
2023/12/07 06:00:59;;;;;;;12.80;3.90;;;6.90;99.90;;;;;;5031491;28;20494;-46
2023/12/07 06:03:25;;;;;;;5.85;3.20;;;6.90;99.90;;;;;;5031020;28;20021;-49
2023/12/07 06:05:51;;;;;;;13.93;3.42;;;6.90;99.90;;;;;;5031455;28;20099;-50
2023/12/07 06:08:17;;;;;;;6.97;3.28;;;6.90;99.90;;;;;;5031158;28;20018;-54
2023/12/07 06:10:43;;;;;;;10.90;3.70;;;7.00;99.90;;;;;;5031159;28;20056;-49
2023/12/07 06:13:10;;;;;;;7.75;3.95;;;7.00;99.90;;;;;;5030617;28;20033;-45
2023/12/07 06:15:36;;;;;;;9.35;4.05;;;6.90;99.90;;;;;;5030955;28;20045;-47
2023/12/07 06:18:01;;;;;;;6.88;3.13;;;7.00;99.90;;;;;;5031163;28;20197;-53
2023/12/07 06:20:27;;;;;;;8.85;3.53;;;7.00;99.90;;;;;;5030629;28;20037;-49
2023/12/07 06:22:53;;;;;;;9.38;3.55;;;7.00;99.90;;;;;;5031339;28;20033;-48
2023/12/07 06:25:18;;;;;;;8.00;2.92;;;7.00;99.90;;;;;;5030850;28;20068;-48
2023/12/07 06:27:44;;;;;;;7.03;3.42;;;7.00;99.90;;;;;;5030992;28;20603;-47
2023/12/07 06:30:10;;;;;;;11.68;3.35;;;7.00;99.90;;;;;;5030947;28;20022;-52
2023/12/07 06:32:36;;;;;;;6.95;2.60;;;7.00;99.90;;;;;;5030687;28;20025;-48
2023/12/07 06:35:04;;;;;;;11.93;3.33;;;7.00;99.90;;;;;;5030741;28;20421;-50
2023/12/07 06:37:30;;;;;;;8.43;3.80;;;7.00;99.90;;;;;;5030676;28;20044;-48
2023/12/07 06:39:55;;;;;;;11.80;3.70;;;7.00;99.90;;;;;;5030728;28;20398;-52
2023/12/07 06:42:21;;;;;;;7.45;3.50;;;7.10;99.90;;;;;;5030386;28;20112;-52
2023/12/07 06:44:51;;;;;;;6.95;2.85;;;7.10;99.90;;;;;;5030520;28;20079;-51
2023/12/07 06:47:18;;;;;;;6.25;2.75;;;7.10;99.90;;;;;;5030439;28;20038;-45
2023/12/07 06:49:44;;;;;;;7.18;2.95;;;7.10;99.90;;;;;;5016625;28;20076;-49
2023/12/07 06:52:10;;;;;;;10.05;3.20;;;7.10;99.90;;;;;;5030505;28;20045;-55
2023/12/07 06:54:36;;;;;;;8.05;2.97;;;7.10;99.90;;;;;;5030284;28;20032;-48
2023/12/07 06:57:02;;;;;;;6.38;2.97;;;7.10;99.90;;;;;;5030396;28;20026;-48
2023/12/07 06:59:28;;;;;;;7.80;2.72;;;7.20;99.90;;;;;;5030455;28;20030;-47
2023/12/07 07:01:54;;;;;;;6.07;3.05;;;7.10;99.90;;;;;;5030123;28;20469;-49
2023/12/07 07:04:19;;;;;;;8.38;2.88;;;7.10;99.90;;;;;;5030261;28;20053;-53
2023/12/07 07:06:45;;;;;;;6.93;2.92;;;7.10;99.90;;;;;;4995987;28;20106;-47
2023/12/07 07:09:12;;;;;;;6.40;2.80;;;7.20;99.90;;;;;;5030409;28;20386;-45
2023/12/07 07:11:38;;;;;;;11.25;3.38;;;7.20;99.90;;;;;;5030206;28;20449;-46
2023/12/07 07:14:04;;;;;;;6.82;3.33;;;7.20;99.90;;;;;;5030298;28;20064;-50
2023/12/07 07:16:30;;;;;;;8.50;3.22;;;7.20;99.90;;;;;;5030204;28;20029;-46
2023/12/07 07:18:56;;;;;;;10.73;3.70;;;7.20;99.90;;;;;;5030073;28;20022;-45
2023/12/07 07:21:22;;;;;;;5.47;3.22;;;7.20;99.90;;;;;;5029521;28;20051;-45
2023/12/07 07:23:47;;;;;;;11.98;3.90;;;7.20;99.90;;;;;;5029481;28;20079;-49
2023/12/07 07:26:17;;;;;;;8.02;3.08;;;7.20;99.90;;;;;;5016218;28;20025;-48
2023/12/07 07:28:43;;;;;;;6.50;3.03;;;7.30;99.90;;;;;;5034108;28;20783;-52
2023/12/07 07:31:09;;;;;;;9.38;3.00;;;7.30;99.90;;;;;;5033885;28;20133;-49
2023/12/07 07:33:34;;;;;;;11.35;3.58;;;7.30;99.90;;;;;;5034161;28;20109;-49
2023/12/07 07:36:00;;;;;;;11.02;3.47;;;7.30;99.90;;;;;;5034132;28;20068;-45
2023/12/07 07:38:26;;;;;;;10.15;2.97;;;7.30;99.90;;;;;;5016007;28;20021;-57
2023/12/07 07:40:52;;;;;;;12.43;3.35;;;7.30;99.90;;;;;;5033824;28;20060;-57
2023/12/07 07:43:17;;;;;;;7.82;2.63;;;7.40;99.90;;;;;;5034033;28;20018;-53
2023/12/07 07:45:43;;;;;;;5.80;2.55;;;7.40;99.90;;;;;;5007972;28;20121;-54
2023/12/07 07:48:09;;;;;;;9.95;2.88;;;7.40;99.90;;;;;;5001107;28;20053;-48
2023/12/07 07:50:36;;;;;;;5.00;2.17;;;7.40;99.90;;;;;;4984151;28;20059;-56
2023/12/07 07:53:03;;;;;;;6.50;2.70;;;7.40;99.90;;;;;;4994461;28;20125;-50
2023/12/07 07:55:29;;;;;;;10.73;2.13;;;7.40;99.90;;;;;;4994370;28;20101;-48
2023/12/07 07:57:55;;;;;;;4.85;2.25;;;7.40;99.90;;;;;;4991714;28;20505;-48
2023/12/07 08:00:21;;;;;;;8.27;2.33;;;7.40;99.90;;;;;;5010478;28;20501;-49
2023/12/07 08:02:46;;;;;;;5.13;2.38;;;7.40;99.90;;;;;;5011133;28;20030;-50
2023/12/07 08:05:12;;;;;;;6.65;2.25;;;7.40;99.90;;;;;;5008411;28;20089;-56
2023/12/07 08:07:40;;;;;;;4.50;2.33;;;7.40;99.90;;;;;;5011066;28;20054;-45
2023/12/07 08:10:06;;;;;;;9.70;2.67;;;7.40;99.90;;;;;;5006660;28;20029;-45
2023/12/07 08:12:33;;;;;;;5.80;2.42;;;7.50;99.90;;;;;;5006622;28;20026;-51
2023/12/07 08:14:59;;;;;;;7.43;2.75;;;7.50;99.90;;;;;;4999820;28;20023;-47
2023/12/07 08:17:26;;;;;;;4.88;2.53;;;7.50;99.90;;;;;;5006756;28;20038;-52
2023/12/07 08:19:52;;;;;;;7.13;2.55;;;7.50;99.90;;;;;;5003007;28;20029;-52
2023/12/07 08:22:17;;;;;;;4.97;2.35;;;7.50;99.90;;;;;;5000208;28;20034;-46
2023/12/07 08:24:43;;;;;;;7.25;2.38;;;7.50;99.90;;;;;;4994007;28;20459;-47
2023/12/07 08:27:09;;;;;;;4.43;2.03;;;7.60;99.90;;;;;;4993510;28;20036;-50
2023/12/07 08:29:36;;;;;;;5.78;2.42;;;7.60;99.90;;;;;;4992755;28;20042;-49
2023/12/07 08:32:02;;;;;;;7.30;2.67;;;7.60;99.90;;;;;;4993249;28;20034;-48
2023/12/07 08:34:28;;;;;;;8.10;2.50;;;7.60;99.90;;;;;;4993515;28;20092;-46
2023/12/07 08:36:53;;;;;;;7.15;2.30;;;7.60;99.90;;;;;;4992195;28;20034;-53
2023/12/07 08:39:19;;;;;;;3.63;2.20;;;7.60;99.90;;;;;;4993581;28;20109;-46
2023/12/07 08:41:44;;;;;;;8.60;2.90;;;7.60;99.90;;;;;;4993240;28;20392;-47
2023/12/07 08:44:11;;;;;;;6.40;2.38;;;7.70;99.90;;;;;;5007247;28;20402;-53
2023/12/07 08:46:36;;;;;;;7.68;2.08;;;7.70;99.90;;;;;;5028518;28;20036;-45
2023/12/07 08:49:02;;;;;;;7.28;2.20;;;7.70;99.90;;;;;;5016448;28;20022;-52
2023/12/07 08:51:29;;;;;;;12.52;2.67;;;7.70;99.90;;;;;;5028935;28;20454;-47
2023/12/07 08:53:54;;;;;;;5.55;2.50;;;7.80;99.90;;;;;;5032451;28;20031;-50
2023/12/07 08:56:20;;;;;;;6.28;2.33;;;7.80;99.90;;;;;;5032413;28;20112;-47
2023/12/07 08:58:46;;;;;;;6.70;2.60;;;7.90;99.90;;;;;;5032374;28;20478;-53
2023/12/07 09:01:12;;;;;;;5.32;2.22;;;7.90;99.90;;;;;;5031685;28;20037;-48
2023/12/07 09:03:37;;;;;;;2.88;1.65;;;7.90;99.90;;;;;;5031065;28;20086;-47
2023/12/07 09:06:05;;;;;;;9.77;2.45;;;8.00;99.90;;;;;;5031793;28;20140;-47
2023/12/07 09:08:30;;;;;;;7.80;2.30;;;8.00;99.90;;;;;;5031309;28;20025;-47
2023/12/07 09:10:56;;;;;;;6.50;2.28;;;8.00;99.90;;;;;;5031351;28;20029;-47
2023/12/07 09:13:22;;;;;;;5.32;2.17;;;8.00;99.90;;;;;;5032122;28;20182;-47
2023/12/07 09:15:47;;;;;;;3.80;1.63;;;8.00;99.90;;;;;;5030737;28;20495;-51
2023/12/07 09:18:13;;;;;;;3.67;2.05;;;8.00;99.90;;;;;;5030009;28;20021;-49
2023/12/07 09:20:47;;;;;;;4.22;1.88;;;8.10;99.90;;;;;;5029861;28;20096;-47
2023/12/07 09:23:14;;;;;;;3.05;1.60;;;8.00;99.90;;;;;;5030083;28;20018;-50
2023/12/07 09:25:40;;;;;;;8.05;1.98;;;8.10;99.90;;;;;;5029902;28;20095;-47
2023/12/07 09:28:07;;;;;;;5.55;2.95;;;8.10;99.90;;;;;;5029905;28;20085;-47
2023/12/07 09:30:33;;;;;;;7.72;2.22;;;8.10;99.90;;;;;;5030702;28;20029;-48
2023/12/07 09:32:59;;;;;;;5.55;1.80;;;8.10;99.90;;;;;;5031789;28;20013;-47
2023/12/07 09:35:25;;;;;;;11.27;2.38;;;8.10;99.90;;;;;;5031584;28;20109;-51
2023/12/07 09:37:51;;;;;;;8.45;2.10;;;8.10;99.90;;;;;;5031108;28;20068;-48
2023/12/07 09:40:18;;;;;;;6.57;2.05;;;8.10;99.90;;;;;;5029796;28;20025;-49
2023/12/07 09:42:44;;;;;;;6.63;2.97;;;8.10;99.90;;;;;;5030169;28;20044;-52
2023/12/07 09:45:10;;;;;;;3.58;1.50;;;8.10;99.90;;;;;;5031276;28;20358;-49
2023/12/07 09:47:40;;;;;;;5.85;2.10;;;8.20;99.90;;;;;;5030335;28;20474;-50
2023/12/07 09:50:11;;;;;;;4.15;1.95;;;8.20;99.90;;;;;;5023340;28;20025;-49
2023/12/07 09:52:38;;;;;;;4.57;1.92;;;8.20;99.90;;;;;;5031188;28;20025;-53
2023/12/07 09:55:05;;;;;;;6.85;2.38;;;8.20;99.90;;;;;;5031366;28;20076;-51
2023/12/07 09:57:31;;;;;;;6.35;2.55;;;8.30;99.90;;;;;;5031147;28;20049;-50
2023/12/07 09:59:57;;;;;;;5.63;1.90;;;8.30;99.90;;;;;;5030699;28;20057;-52
2023/12/07 10:02:23;;;;;;;10.25;1.95;;;8.30;99.90;;;;;;5031290;28;20072;-47
2023/12/07 10:05:02;;;;;;;7.70;1.80;;;8.40;99.90;;;;;;5030989;28;20026;-49
2023/12/07 10:07:36;;;;;;;4.38;1.55;;;8.40;99.90;;;;;;5031229;28;20029;-49
2023/12/07 10:10:03;;;;;;;4.40;2.13;;;8.50;99.90;;;;;;5031053;28;20033;-47
2023/12/07 10:12:34;;;;;;;5.63;2.08;;;8.50;99.90;;;;;;5031062;28;20064;-46
2023/12/07 10:15:02;;;;;;;3.72;1.90;;;8.50;99.90;;;;;;5030945;28;20025;-50
2023/12/07 10:17:59;;;;;;;3.33;1.50;;;8.50;99.90;;;;;;5030898;28;20040;-47
2023/12/07 10:20:26;;;;;;;7.43;2.13;;;8.50;99.90;;;;;;5030555;28;20346;-47
2023/12/07 10:23:05;;;;;;;4.30;2.00;;;8.50;99.90;;;;;;5031001;28;20532;-46
2023/12/07 10:25:32;;;;;;;3.60;1.75;;;8.50;99.90;;;;;;5030701;28;20051;-46
2023/12/07 10:27:58;;;;;;;3.30;1.77;;;8.50;99.90;;;;;;5030857;28;20033;-47
2023/12/07 10:30:25;;;;;;;5.07;2.20;;;8.50;99.90;;;;;;5030585;28;20021;-47
2023/12/07 10:32:52;;;;;;;3.00;1.60;;;8.50;99.90;;;;;;5030771;28;20425;-46
2023/12/07 10:35:19;;;;;;;7.85;2.13;;;8.60;99.90;;;;;;5030643;28;20029;-47
2023/12/07 10:37:46;;;;;;;4.20;1.90;;;8.50;99.90;;;;;;5030297;28;20429;-47
2023/12/07 10:40:12;;;;;;;3.60;1.60;;;8.50;99.90;;;;;;5030700;28;20032;-47
2023/12/07 10:42:41;;;;;;;8.07;2.08;;;8.50;99.90;;;;;;5030179;28;20022;-45
2023/12/07 10:45:09;;;;;;;6.10;2.07;;;8.50;99.90;;;;;;5030501;28;20107;-46
2023/12/07 10:47:37;;;;;;;6.78;2.03;;;8.50;99.90;;;;;;5030236;28;20037;-45
2023/12/07 10:50:10;;;;;;;4.55;2.15;;;8.50;99.90;;;;;;5012735;28;20402;-49
2023/12/07 10:52:40;;;;;;;6.95;1.80;;;8.50;99.90;;;;;;5030577;28;20052;-50
2023/12/07 10:55:11;;;;;;;4.90;2.33;;;8.50;99.90;;;;;;5030245;28;20446;-48
2023/12/07 10:57:37;;;;;;;7.35;1.73;;;8.60;99.90;;;;;;5030605;28;20215;-49
2023/12/07 11:00:03;;;;;;;5.10;1.90;;;8.50;99.90;;;;;;5030275;28;20018;-49
2023/12/07 11:02:32;;;;;;;3.20;1.30;;;8.60;99.90;;;;;;5030220;28;20120;-46
2023/12/07 11:04:59;;;;;;;6.32;1.92;;;8.60;99.90;;;;;;5030265;28;20429;-48
2023/12/07 11:07:31;;;;;;;5.53;1.35;;;8.60;99.90;;;;;;5030291;28;20068;-48
2023/12/07 11:10:37;;;;;;;8.27;2.20;;;8.60;99.90;;;;;;5030225;28;20025;-47
2023/12/07 11:13:08;;;;;;;7.88;1.77;;;8.60;99.90;;;;;;5006777;28;20084;-48
2023/12/07 11:15:34;;;;;;;3.28;1.58;;;8.60;99.90;;;;;;5030097;28;20456;-48
2023/12/07 11:18:02;;;;;;;5.32;1.58;;;8.60;99.90;;;;;;5030017;28;20072;-48
2023/12/07 11:20:43;;;;;;;8.65;2.17;;;8.60;99.90;;;;;;5030124;28;20389;-51
2023/12/07 11:23:09;;;;;;;6.40;1.30;;;8.50;99.90;;;;;;5029869;28;20506;-50
2023/12/07 11:25:38;;;;;;;2.80;1.48;;;8.50;99.90;;;;;;5029971;28;20032;-53
2023/12/07 11:28:07;;;;;;;7.18;2.05;;;8.60;99.90;;;;;;5030011;28;20030;-50
2023/12/07 11:30:35;;;;;;;6.38;1.67;;;8.60;99.90;;;;;;5029565;28;20108;-52
2023/12/07 11:33:04;;;;;;;3.38;1.80;;;8.60;99.90;;;;;;5029987;28;20033;-52
2023/12/07 11:35:29;;;;;;;5.65;1.67;;;8.50;99.90;;;;;;5029811;28;20017;-59
2023/12/07 11:38:11;;;;;;;2.97;1.58;;;8.50;99.90;;;;;;5030057;28;20116;-54
2023/12/07 11:40:43;;;;;;;6.10;1.65;;;8.50;99.90;;;;;;5027109;28;20032;-54
2023/12/07 11:43:36;;;;;;;8.57;1.63;;;8.50;99.90;;;;;;5027304;28;20030;-53
2023/12/07 11:46:02;;;;;;;5.32;1.85;;;8.50;99.90;;;;;;5028101;28;20030;-54
2023/12/07 11:48:28;;;;;;;4.90;2.17;;;8.50;99.90;;;;;;5023251;28;20041;-53
2023/12/07 11:51:04;;;;;;;7.57;1.85;;;8.40;99.90;;;;;;5022632;28;20112;-50
2023/12/07 11:53:37;;;;;;;5.60;1.73;;;8.50;99.90;;;;;;5029010;28;20040;-51
2023/12/07 11:56:04;;;;;;;5.75;2.00;;;8.40;99.90;;;;;;5029666;28;20490;-49
2023/12/07 11:58:31;;;;;;;4.35;1.83;;;8.50;99.90;;;;;;5023206;28;20040;-47
2023/12/07 12:00:57;;;;;;;5.05;1.83;;;8.50;99.90;;;;;;5027625;28;20116;-53
2023/12/07 12:03:24;;;;;;;7.85;2.22;;;8.40;99.90;;;;;;5029354;28;20026;-50
2023/12/07 12:05:50;;;;;;;7.75;2.97;;;8.40;99.90;;;;;;5006209;28;20031;-51
2023/12/07 12:08:19;;;;;;;5.65;2.30;;;8.40;99.90;;;;;;5029472;28;20417;-46
2023/12/07 12:10:47;;;;;;;4.28;2.15;;;8.40;99.90;;;;;;5030750;28;20085;-47
2023/12/07 12:13:13;;;;;;;5.68;2.22;;;8.40;99.90;;;;;;5033332;28;20079;-45
2023/12/07 12:15:39;;;;;;;3.53;1.95;;;8.40;99.90;;;;;;5033177;28;20042;-52
2023/12/07 12:18:06;;;;;;;10.55;2.90;;;8.40;99.90;;;;;;5033250;28;20474;-52
2023/12/07 12:20:32;;;;;;;8.05;2.75;;;8.40;99.90;;;;;;5032888;28;20486;-51
2023/12/07 12:22:58;;;;;;;5.88;1.77;;;8.40;99.90;;;;;;5033061;28;20032;-45
2023/12/07 12:25:30;;;;;;;7.78;2.22;;;8.40;99.90;;;;;;5032949;28;20025;-50
2023/12/07 12:27:58;;;;;;;9.60;2.10;;;8.40;99.90;;;;;;5022050;28;20385;-52
2023/12/07 12:30:24;;;;;;;9.23;1.83;;;8.40;99.90;;;;;;5032921;28;20490;-49
2023/12/07 12:32:50;;;;;;;4.25;1.65;;;8.40;99.90;;;;;;5033014;28;20082;-49
2023/12/07 12:35:16;;;;;;;4.55;1.92;;;8.40;99.90;;;;;;5032642;28;20037;-48
2023/12/07 12:37:46;;;;;;;4.40;1.92;;;8.50;99.90;;;;;;5032773;28;20053;-45
2023/12/07 12:40:15;;;;;;;4.15;1.77;;;8.50;99.90;;;;;;5032492;28;20124;-50
2023/12/07 12:42:44;;;;;;;6.60;1.73;;;8.50;99.90;;;;;;5016531;28;20033;-46
2023/12/07 12:45:12;;;;;;;5.47;1.90;;;8.50;99.90;;;;;;5032522;28;20049;-50
2023/12/07 12:47:40;;;;;;;5.00;1.65;;;8.50;99.90;;;;;;5031557;28;20025;-49
2023/12/07 12:50:06;;;;;;;4.28;2.10;;;8.40;99.90;;;;;;5018482;28;20030;-51
2023/12/07 12:52:33;;;;;;;2.45;1.52;;;8.50;99.90;;;;;;5032725;28;20508;-52
2023/12/07 12:54:59;;;;;;;4.75;1.58;;;8.40;99.90;;;;;;5032620;28;20037;-49